createdAt,value
2022-09-07T00:00:58.920Z,98.40
2022-09-07T00:03:25.698Z,98.50
2022-09-07T00:05:52.663Z,98.32
2022-09-07T00:08:22.778Z,98.67
2022-09-07T00:11:01.004Z,98.60
2022-09-07T00:13:29.958Z,98.91
2022-09-07T00:15:57.274Z,99.00
2022-09-07T00:18:24.227Z,99.01
2022-09-07T00:21:05.745Z,99.22
2022-09-07T00:23:33.460Z,99.37
2022-09-07T00:26:05.805Z,99.55
2022-09-07T00:28:32.649Z,99.56
2022-09-07T00:30:59.124Z,99.55
2022-09-07T00:33:26.049Z,99.45
2022-09-07T00:35:52.604Z,99.70
2022-09-07T00:38:19.221Z,99.60
2022-09-07T00:40:45.612Z,99.33
2022-09-07T00:43:17.412Z,99.59
2022-09-07T00:45:43.863Z,99.67
2022-09-07T00:48:17.031Z,99.60
2022-09-07T00:51:05.186Z,99.57
2022-09-07T00:53:55.395Z,99.41
2022-09-07T00:56:26.462Z,99.52
2022-09-07T00:58:53.429Z,99.35
2022-09-07T01:01:20.403Z,99.56
2022-09-07T01:03:51.125Z,99.60
2022-09-07T01:06:17.418Z,99.56
2022-09-07T01:08:45.679Z,99.68
2022-09-07T01:11:12.693Z,99.89
2022-09-07T01:13:41.666Z,99.89
2022-09-07T01:16:20.097Z,99.96
2022-09-07T01:18:55.430Z,100.00
2022-09-07T01:21:26.086Z,100.00
2022-09-07T01:24:10.556Z,100.00
2022-09-07T01:26:57.932Z,100.00
2022-09-07T01:29:31.665Z,100.00
2022-09-07T01:32:44.280Z,100.00
2022-09-07T01:35:23.421Z,100.00
2022-09-07T01:37:57.796Z,99.97
2022-09-07T01:40:44.435Z,100.00
2022-09-07T01:43:22.412Z,100.00
2022-09-07T01:45:52.636Z,100.00
2022-09-07T01:48:21.586Z,100.00
2022-09-07T01:50:53.947Z,100.00
2022-09-07T01:53:28.905Z,100.00
2022-09-07T01:56:00.875Z,100.00
2022-09-07T01:58:27.490Z,100.00
2022-09-07T02:01:07.659Z,99.98
2022-09-07T02:03:42.672Z,100.00
2022-09-07T02:06:31.373Z,100.00
2022-09-07T02:09:22.976Z,100.00
2022-09-07T02:11:50.300Z,100.00
2022-09-07T02:14:34.335Z,100.00
2022-09-07T02:17:13.980Z,100.00
2022-09-07T02:19:59.967Z,100.00
2022-09-07T02:22:31.856Z,100.00
2022-09-07T02:25:01.577Z,100.00
2022-09-07T02:27:46.828Z,100.00
2022-09-07T02:30:14.140Z,100.00
2022-09-07T02:32:40.875Z,100.00
2022-09-07T02:35:07.926Z,100.00
2022-09-07T02:37:37.256Z,100.00
2022-09-07T02:40:05.147Z,100.00
2022-09-07T02:42:34.169Z,100.00
2022-09-07T02:45:04.290Z,100.00
2022-09-07T02:47:36.589Z,100.00
2022-09-07T02:50:31.889Z,100.00
2022-09-07T02:53:13.536Z,100.00
2022-09-07T02:55:54.868Z,100.00
2022-09-07T02:58:40.219Z,100.00
2022-09-07T03:01:06.597Z,100.00
2022-09-07T03:03:46.988Z,100.00
2022-09-07T03:06:22.767Z,100.00
2022-09-07T03:08:53.549Z,100.00
2022-09-07T03:11:20.772Z,100.00
2022-09-07T03:13:47.204Z,100.00
2022-09-07T03:16:14.950Z,100.00
2022-09-07T03:18:42.820Z,100.00
2022-09-07T03:21:10.151Z,100.00
2022-09-07T03:23:37.736Z,100.00
2022-09-07T03:26:04.518Z,100.00
2022-09-07T03:28:31.064Z,100.00
2022-09-07T03:30:57.610Z,100.00
2022-09-07T03:33:24.026Z,100.00
2022-09-07T03:35:59.771Z,100.00
2022-09-07T03:38:26.164Z,100.00
2022-09-07T03:41:04.315Z,100.00
2022-09-07T03:43:31.864Z,100.00
2022-09-07T03:46:00.290Z,100.00
2022-09-07T03:48:29.963Z,100.00
2022-09-07T03:51:08.518Z,100.00
2022-09-07T03:53:43.518Z,100.00
2022-09-07T03:56:12.625Z,100.00
2022-09-07T03:58:39.437Z,100.00
2022-09-07T04:01:10.922Z,100.00
2022-09-07T04:03:37.762Z,100.00
2022-09-07T04:06:04.628Z,100.00
2022-09-07T04:08:34.079Z,100.00
2022-09-07T04:11:02.020Z,100.00
2022-09-07T04:13:30.407Z,100.00
2022-09-07T04:15:56.896Z,100.00
2022-09-07T04:18:24.286Z,100.00
2022-09-07T04:20:51.140Z,100.00
2022-09-07T04:23:18.778Z,100.00
2022-09-07T04:25:49.578Z,100.00
2022-09-07T04:28:20.851Z,100.00
2022-09-07T04:30:47.571Z,100.00
2022-09-07T04:33:14.488Z,100.00
2022-09-07T04:35:42.202Z,100.00
2022-09-07T04:38:13.881Z,100.00
2022-09-07T04:40:40.315Z,100.00
2022-09-07T04:43:08.154Z,100.00
2022-09-07T04:45:37.515Z,100.00
2022-09-07T04:48:05.179Z,100.00
2022-09-07T04:50:32.357Z,100.00
2022-09-07T04:52:58.837Z,100.00
2022-09-07T04:55:25.312Z,100.00
2022-09-07T04:57:51.862Z,100.00
2022-09-07T05:00:18.455Z,100.00
2022-09-07T05:02:44.916Z,100.00
2022-09-07T05:05:11.424Z,100.00
2022-09-07T05:07:37.977Z,100.00
2022-09-07T05:10:04.818Z,100.00
2022-09-07T05:12:31.213Z,100.00
2022-09-07T05:14:57.661Z,100.00
2022-09-07T05:17:24.198Z,100.00
2022-09-07T05:19:50.604Z,100.00
2022-09-07T05:22:17.069Z,100.00
2022-09-07T05:24:43.501Z,100.00
2022-09-07T05:27:10.013Z,100.00
2022-09-07T05:32:22.812Z,100.00
2022-09-07T05:34:52.256Z,100.00
2022-09-07T05:37:21.943Z,100.00
2022-09-07T05:39:48.513Z,100.00
2022-09-07T05:42:14.969Z,100.00
2022-09-07T05:47:13.259Z,100.00
2022-09-07T05:49:39.977Z,100.00
2022-09-07T05:52:06.845Z,100.00
2022-09-07T05:54:33.215Z,100.00
2022-09-07T05:57:03.647Z,100.00
2022-09-07T05:59:30.215Z,100.00
2022-09-07T06:01:56.855Z,100.00
2022-09-07T06:04:23.378Z,100.00
2022-09-07T06:07:11.020Z,100.00
2022-09-07T06:12:23.202Z,100.00
2022-09-07T06:14:49.633Z,100.00
2022-09-07T06:17:21.224Z,100.00
2022-09-07T06:19:47.707Z,100.00
2022-09-07T06:22:14.086Z,100.00
2022-09-07T06:24:40.440Z,100.00
2022-09-07T06:27:07.103Z,100.00
2022-09-07T06:29:33.480Z,100.00
2022-09-07T06:34:46.377Z,100.00
2022-09-07T06:37:16.602Z,100.00
2022-09-07T06:39:43.248Z,100.00
2022-09-07T06:42:09.746Z,100.00
2022-09-07T06:44:36.901Z,100.00
2022-09-07T06:47:12.245Z,100.00
2022-09-07T06:49:38.625Z,100.00
2022-09-07T06:52:05.034Z,100.00
2022-09-07T06:57:18.071Z,100.00
2022-09-07T06:59:44.504Z,100.00
2022-09-07T07:02:14.886Z,100.00
2022-09-07T07:04:41.525Z,100.00
2022-09-07T07:07:14.473Z,100.00
2022-09-07T07:09:41.598Z,100.00
2022-09-07T07:12:09.967Z,100.00
2022-09-07T07:14:39.613Z,100.00
2022-09-07T07:17:06.505Z,100.00
2022-09-07T07:19:32.871Z,99.87
2022-09-07T07:22:14.392Z,99.74
2022-09-07T07:24:45.607Z,99.66
2022-09-07T07:27:12.120Z,99.68
2022-09-07T07:29:38.517Z,99.47
2022-09-07T07:32:05.214Z,99.46
2022-09-07T07:34:31.961Z,99.24
2022-09-07T07:36:58.538Z,98.81
2022-09-07T07:42:12.287Z,97.83
2022-09-07T07:44:38.598Z,97.73
2022-09-07T07:47:05.369Z,97.36
2022-09-07T07:49:31.966Z,97.70
2022-09-07T07:54:45.339Z,97.87
2022-09-07T07:57:12.134Z,97.67
2022-09-07T07:59:39.291Z,97.60
2022-09-07T08:02:08.552Z,97.45
2022-09-07T08:04:35.560Z,96.99
2022-09-07T08:07:09.275Z,96.02
2022-09-07T08:09:37.926Z,95.53
2022-09-07T08:12:04.293Z,95.78
2022-09-07T08:14:30.919Z,95.68
2022-09-07T08:16:58.405Z,95.42
2022-09-07T08:19:24.768Z,95.61
2022-09-07T08:21:51.081Z,94.94
2022-09-07T08:24:17.386Z,95.34
2022-09-07T08:26:43.712Z,94.98
2022-09-07T08:29:10.050Z,93.78
2022-09-07T08:31:36.483Z,93.72
2022-09-07T08:34:03.029Z,93.49
2022-09-07T08:36:31.700Z,93.66
2022-09-07T08:38:58.028Z,93.40
2022-09-07T08:41:48.798Z,93.05
2022-09-07T08:44:26.164Z,92.01
2022-09-07T08:46:57.777Z,91.58
2022-09-07T08:49:43.288Z,91.49
2022-09-07T08:52:22.285Z,91.82
2022-09-07T08:55:10.957Z,91.22
2022-09-07T08:57:43.504Z,91.29
2022-09-07T09:00:15.945Z,89.82
2022-09-07T09:02:44.242Z,89.97
2022-09-07T09:05:28.145Z,88.38
2022-09-07T09:08:10.728Z,87.61
2022-09-07T09:10:45.794Z,87.01
2022-09-07T09:13:20.704Z,87.04
2022-09-07T09:15:58.499Z,86.63
2022-09-07T09:18:33.733Z,86.60
2022-09-07T09:21:00.918Z,85.83
2022-09-07T09:23:33.609Z,84.28
2022-09-07T09:26:07.184Z,83.15
2022-09-07T09:28:33.982Z,84.23
2022-09-07T09:31:00.653Z,84.29
2022-09-07T09:33:28.869Z,84.25
2022-09-07T09:36:00.417Z,84.18
2022-09-07T09:38:40.266Z,82.83
2022-09-07T09:41:13.049Z,83.27
2022-09-07T09:43:52.001Z,81.73
2022-09-07T09:46:48.158Z,80.76
2022-09-07T09:49:18.150Z,80.89
2022-09-07T09:54:41.047Z,80.41
2022-09-07T09:57:15.294Z,81.03
2022-09-07T09:59:59.361Z,81.18
2022-09-07T10:05:34.782Z,79.25
2022-09-07T10:08:02.593Z,78.44
2022-09-07T10:10:30.350Z,76.34
2022-09-07T10:12:57.577Z,75.48
2022-09-07T10:15:33.000Z,74.49
2022-09-07T10:18:05.832Z,74.54
2022-09-07T10:20:37.978Z,74.26
2022-09-07T10:23:06.113Z,75.38
2022-09-07T10:25:44.314Z,74.21
2022-09-07T10:28:11.498Z,71.83
2022-09-07T10:30:58.119Z,73.03
2022-09-07T10:33:39.083Z,70.52
2022-09-07T10:36:14.503Z,69.77
2022-09-07T10:39:03.403Z,71.80
2022-09-07T10:42:09.755Z,71.22
2022-09-07T10:45:13.210Z,67.83
2022-09-07T10:47:58.585Z,67.41
2022-09-07T10:50:31.854Z,65.37
2022-09-07T10:53:37.074Z,67.44
2022-09-07T10:56:27.924Z,68.53
2022-09-07T10:59:26.537Z,67.76
2022-09-07T11:01:58.412Z,68.97
2022-09-07T11:04:47.899Z,70.12
2022-09-07T11:07:43.548Z,66.09
2022-09-07T11:10:23.725Z,66.98
2022-09-07T11:12:52.117Z,61.64
2022-09-07T11:15:27.288Z,61.40
2022-09-07T11:18:14.552Z,64.06
2022-09-07T11:20:46.883Z,61.78
2022-09-07T11:23:28.484Z,59.19
2022-09-07T11:26:02.328Z,61.47
2022-09-07T11:28:45.621Z,61.38
2022-09-07T11:31:22.261Z,59.50
2022-09-07T11:34:27.138Z,60.39
2022-09-07T11:37:00.987Z,56.98
2022-09-07T11:39:35.681Z,55.66
2022-09-07T11:45:16.976Z,57.69
2022-09-07T11:47:55.437Z,58.45
2022-09-07T11:50:23.673Z,58.42
2022-09-07T11:53:16.235Z,59.00
2022-09-07T11:55:47.570Z,57.88
2022-09-07T11:58:13.964Z,58.97
2022-09-07T12:00:46.363Z,58.15
2022-09-07T12:03:41.259Z,58.27
2022-09-07T12:06:31.359Z,57.61
2022-09-07T12:09:11.857Z,57.90
2022-09-07T12:12:03.108Z,57.85
2022-09-07T12:14:45.026Z,58.35
2022-09-07T12:17:14.573Z,56.81
2022-09-07T12:19:41.123Z,56.14
2022-09-07T12:22:20.659Z,55.37
2022-09-07T12:24:54.854Z,54.62
2022-09-07T12:27:22.394Z,54.65
2022-09-07T12:29:52.449Z,54.92
2022-09-07T12:32:54.962Z,53.26
2022-09-07T12:35:31.018Z,52.59
2022-09-07T12:38:21.821Z,54.55
2022-09-07T12:40:54.289Z,52.15
2022-09-07T12:43:20.565Z,52.64
2022-09-07T12:45:47.144Z,50.61
2022-09-07T12:48:16.152Z,50.24
2022-09-07T12:51:59.032Z,49.68
2022-09-07T12:54:19.168Z,49.49
2022-09-07T13:00:15.373Z,50.74
2022-09-07T13:03:00.734Z,50.75
2022-09-07T13:05:48.557Z,50.41
2022-09-07T13:08:33.526Z,50.73
2022-09-07T13:11:16.776Z,49.54
2022-09-07T13:14:05.170Z,49.14
2022-09-07T13:17:15.891Z,48.23
2022-09-07T13:19:56.884Z,47.96
2022-09-07T13:22:32.236Z,48.05
2022-09-07T13:25:18.038Z,47.72
2022-09-07T13:27:52.922Z,47.56
2022-09-07T13:30:47.080Z,48.90
2022-09-07T13:33:36.784Z,49.79
2022-09-07T13:36:05.329Z,48.09
2022-09-07T13:38:36.349Z,50.47
2022-09-07T13:41:12.873Z,49.95
2022-09-07T13:43:40.181Z,49.98
2022-09-07T13:46:22.287Z,49.33
2022-09-07T13:49:05.780Z,46.00
2022-09-07T13:51:43.068Z,44.76
2022-09-07T13:54:33.393Z,45.04
2022-09-07T13:57:25.272Z,42.40
2022-09-07T13:59:52.148Z,42.13
2022-09-07T14:02:32.151Z,44.40
2022-09-07T14:05:02.867Z,44.49
2022-09-07T14:07:30.793Z,45.35
2022-09-07T14:10:22.996Z,45.71
2022-09-07T14:12:51.058Z,42.94
2022-09-07T14:15:32.305Z,42.63
2022-09-07T14:18:30.186Z,42.77
2022-09-07T14:20:57.325Z,41.42
2022-09-07T14:23:30.191Z,40.54
2022-09-07T14:26:16.567Z,44.12
2022-09-07T14:28:45.873Z,43.68
2022-09-07T14:31:15.272Z,44.72
2022-09-07T14:33:51.104Z,43.49
2022-09-07T14:36:41.840Z,43.57
2022-09-07T14:39:07.055Z,43.50
2022-09-07T14:41:38.349Z,43.82
2022-09-07T14:44:04.847Z,41.70
2022-09-07T14:46:34.065Z,42.63
2022-09-07T14:49:04.877Z,43.30
2022-09-07T14:51:36.427Z,41.92
2022-09-07T14:54:07.696Z,41.75
2022-09-07T14:56:40.100Z,40.39
2022-09-07T14:59:26.429Z,41.02
2022-09-07T15:02:18.543Z,40.64
2022-09-07T15:04:45.909Z,39.56
2022-09-07T15:07:41.074Z,39.20
2022-09-07T15:10:23.554Z,40.92
2022-09-07T15:12:55.369Z,37.88
2022-09-07T15:15:28.899Z,37.93
2022-09-07T15:18:01.837Z,38.50
2022-09-07T15:20:34.944Z,38.24
2022-09-07T15:23:08.301Z,37.96
2022-09-07T15:25:35.305Z,38.63
2022-09-07T15:28:01.960Z,38.58
2022-09-07T15:30:28.481Z,38.63
2022-09-07T15:32:56.902Z,40.10
2022-09-07T15:35:23.719Z,39.94
2022-09-07T15:38:58.844Z,41.29
2022-09-07T15:41:21.969Z,40.52
2022-09-07T15:43:44.018Z,40.61
2022-09-07T15:46:10.874Z,40.61
2022-09-07T15:48:53.114Z,41.16
2022-09-07T15:54:12.168Z,40.79
2022-09-07T15:56:40.061Z,41.50
2022-09-07T15:59:06.811Z,42.06
2022-09-07T16:01:52.043Z,42.15
2022-09-07T16:04:23.518Z,41.43
2022-09-07T16:08:24.940Z,42.26
2022-09-07T16:10:10.763Z,42.50
2022-09-07T16:15:27.027Z,43.66
2022-09-07T16:18:38.026Z,43.99
2022-09-07T16:21:18.561Z,44.89
2022-09-07T16:23:53.735Z,44.17
2022-09-07T16:26:24.252Z,44.69
2022-09-07T16:28:54.623Z,44.62
2022-09-07T16:31:26.840Z,44.39
2022-09-07T16:33:53.886Z,43.91
2022-09-07T16:36:23.507Z,43.20
2022-09-07T16:39:00.352Z,42.21
2022-09-07T16:41:29.400Z,42.34
2022-09-07T16:43:56.270Z,41.73
2022-09-07T16:46:25.587Z,42.91
2022-09-07T16:48:52.882Z,43.46
2022-09-07T16:51:21.438Z,43.44
2022-09-07T16:53:50.206Z,43.88
2022-09-07T16:56:18.925Z,44.06
2022-09-07T16:58:50.963Z,44.55
2022-09-07T17:01:20.658Z,44.51
2022-09-07T17:03:49.504Z,44.99
2022-09-07T17:06:17.321Z,46.10
2022-09-07T17:08:44.727Z,46.43
2022-09-07T17:11:19.840Z,46.52
2022-09-07T17:13:47.619Z,46.82
2022-09-07T17:16:16.854Z,46.55
2022-09-07T17:21:33.166Z,47.42
2022-09-07T17:24:00.576Z,47.86
2022-09-07T17:26:27.444Z,49.28
2022-09-07T17:29:00.334Z,49.28
2022-09-07T17:34:22.373Z,50.69
2022-09-07T17:36:48.864Z,51.21
2022-09-07T17:39:17.751Z,52.09
2022-09-07T17:41:45.662Z,52.74
2022-09-07T17:44:12.502Z,53.52
2022-09-07T17:46:38.899Z,54.39
2022-09-07T17:49:07.815Z,54.83
2022-09-07T17:51:35.661Z,55.67
2022-09-07T17:54:09.611Z,57.21
2022-09-07T17:56:36.503Z,57.79
2022-09-07T18:01:49.832Z,59.09
2022-09-07T18:04:17.320Z,59.78
2022-09-07T18:06:44.059Z,60.30
2022-09-07T18:09:11.856Z,61.29
2022-09-07T18:11:47.104Z,61.54
2022-09-07T18:14:14.803Z,61.97
2022-09-07T18:16:42.386Z,62.48
2022-09-07T18:19:08.955Z,63.08
2022-09-07T18:21:37.269Z,63.30
2022-09-07T18:24:07.568Z,63.89
2022-09-07T18:26:38.269Z,64.58
2022-09-07T18:29:13.036Z,64.96
2022-09-07T18:31:45.839Z,65.26
2022-09-07T18:34:12.548Z,65.03
2022-09-07T18:36:43.681Z,65.72
2022-09-07T18:39:10.319Z,65.78
2022-09-07T18:41:39.229Z,66.18
2022-09-07T18:45:26.980Z,65.66
2022-09-07T18:46:53.843Z,65.75
2022-09-07T18:49:20.417Z,66.50
2022-09-07T18:54:33.231Z,68.38
2022-09-07T18:57:00.690Z,69.22
2022-09-07T18:59:27.055Z,69.54
2022-09-07T19:01:54.103Z,69.53
2022-09-07T19:04:21.170Z,69.26
2022-09-07T19:06:48.166Z,68.63
2022-09-07T19:09:14.792Z,69.35
2022-09-07T19:11:42.438Z,69.56
2022-09-07T19:14:09.402Z,69.83
2022-09-07T19:16:36.361Z,70.08
2022-09-07T19:19:06.160Z,70.57
2022-09-07T19:21:38.869Z,70.79
2022-09-07T19:24:07.540Z,71.14
2022-09-07T19:26:36.796Z,71.46
2022-09-07T19:29:06.867Z,71.80
2022-09-07T19:31:33.316Z,71.91
2022-09-07T19:34:01.707Z,72.50
2022-09-07T19:36:30.186Z,72.87
2022-09-07T19:38:56.934Z,73.52
2022-09-07T19:41:23.679Z,73.93
2022-09-07T19:43:50.118Z,74.22
2022-09-07T19:46:22.694Z,74.09
2022-09-07T19:48:56.132Z,74.20
2022-09-07T19:51:22.718Z,73.56
2022-09-07T19:53:49.272Z,73.99
2022-09-07T19:56:24.161Z,74.02
2022-09-07T19:59:01.350Z,74.32
2022-09-07T20:01:28.479Z,74.45
2022-09-07T20:04:00.207Z,74.50
2022-09-07T20:06:27.762Z,74.76
2022-09-07T20:09:01.259Z,75.29
2022-09-07T20:11:31.129Z,75.42
2022-09-07T20:13:57.530Z,75.78
2022-09-07T20:16:25.205Z,75.76
2022-09-07T20:18:59.261Z,75.92
2022-09-07T20:21:26.253Z,75.33
2022-09-07T20:23:53.002Z,75.72
2022-09-07T20:26:21.177Z,75.79
2022-09-07T20:29:29.186Z,76.06
2022-09-07T20:31:57.876Z,76.33
2022-09-07T20:34:24.626Z,76.19
2022-09-07T20:36:51.871Z,76.15
2022-09-07T20:39:19.521Z,75.86
2022-09-07T20:41:46.521Z,75.69
2022-09-07T20:44:14.197Z,76.45
2022-09-07T20:46:40.829Z,76.96
2022-09-07T20:49:07.353Z,76.90
2022-09-07T20:51:33.794Z,77.22
2022-09-07T20:54:00.172Z,77.43
2022-09-07T20:56:28.063Z,77.80
2022-09-07T20:59:06.898Z,78.29
2022-09-07T21:01:35.118Z,78.45
2022-09-07T21:04:02.041Z,78.70
2022-09-07T21:06:32.855Z,78.18
2022-09-07T21:09:08.428Z,78.16
2022-09-07T21:11:35.686Z,78.53
2022-09-07T21:14:10.423Z,78.79
2022-09-07T21:16:36.902Z,78.44
2022-09-07T21:19:05.956Z,78.14
2022-09-07T21:21:39.264Z,78.79
2022-09-07T21:24:16.778Z,78.85
2022-09-07T21:26:43.169Z,79.03
2022-09-07T21:29:15.518Z,79.32
2022-09-07T21:31:41.990Z,79.45
2022-09-07T21:34:09.085Z,79.18
2022-09-07T21:36:36.567Z,79.49
2022-09-07T21:39:03.253Z,78.84
2022-09-07T21:41:30.398Z,78.56
2022-09-07T21:43:58.462Z,78.20
2022-09-07T21:46:26.275Z,78.71
2022-09-07T21:48:53.030Z,79.25
2022-09-07T21:51:19.643Z,79.30
2022-09-07T21:53:51.680Z,78.93
2022-09-07T21:56:18.079Z,78.97
2022-09-07T21:58:44.918Z,79.46
2022-09-07T22:01:19.227Z,79.86
2022-09-07T22:03:48.032Z,79.50
2022-09-07T22:06:15.192Z,80.10
2022-09-07T22:08:42.870Z,79.60
2022-09-07T22:11:13.267Z,79.37
2022-09-07T22:13:40.389Z,79.79
2022-09-07T22:16:07.364Z,79.99
2022-09-07T22:18:37.367Z,80.21
2022-09-07T22:21:06.230Z,80.01
2022-09-07T22:23:34.471Z,80.15
2022-09-07T22:26:01.746Z,80.25
2022-09-07T22:28:31.765Z,80.47
2022-09-07T22:31:10.397Z,80.56
2022-09-07T22:33:37.128Z,80.43
2022-09-07T22:36:15.034Z,80.31
2022-09-07T22:38:42.780Z,79.98
2022-09-07T22:41:12.192Z,79.75
2022-09-07T22:43:39.140Z,79.67
2022-09-07T22:46:06.771Z,79.98
2022-09-07T22:48:35.203Z,79.90
2022-09-07T22:51:02.795Z,79.91
2022-09-07T22:53:32.578Z,79.96
2022-09-07T22:56:00.046Z,79.94
2022-09-07T22:58:29.035Z,79.98
2022-09-07T23:01:01.504Z,80.22
2022-09-07T23:03:28.888Z,80.05
2022-09-07T23:05:55.619Z,79.96
2022-09-07T23:08:22.131Z,79.47
2022-09-07T23:10:48.763Z,79.39
2022-09-07T23:13:16.815Z,80.11
2022-09-07T23:15:43.694Z,80.98
2022-09-07T23:18:18.175Z,80.98
2022-09-07T23:20:44.896Z,80.85
2022-09-07T23:23:13.216Z,81.05
2022-09-07T23:25:41.322Z,81.02
2022-09-07T23:28:11.915Z,80.85
2022-09-07T23:30:40.508Z,80.55
2022-09-07T23:33:07.431Z,80.84
2022-09-07T23:35:33.853Z,81.02
2022-09-07T23:38:00.522Z,80.83
2022-09-07T23:40:28.878Z,81.13
2022-09-07T23:42:55.222Z,81.17
2022-09-07T23:45:22.380Z,81.06
2022-09-07T23:47:48.962Z,81.11
2022-09-07T23:50:15.432Z,80.90
2022-09-07T23:52:42.011Z,81.04
2022-09-07T23:55:10.170Z,80.71
2022-09-07T23:57:37.867Z,80.76
